Time;durP1;ratioP1;P1;durP2;ratioP2;P2;SDS_P1;SDS_P2;PMS_P1;PMS_P2;Temp;Humidity;BMP_temperature;BMP_pressure;BME280_temperature;BME280_humidity;BME280_pressure;Samples;Min_cycle;Max_cycle;Signal;HPM_P1;HPM_P2
2022/09/09 00:01:24;;;;;;;0.77;0.70;;;;;;;;;;5055101;28;20194;-87
2022/09/09 00:03:57;;;;;;;1.45;0.95;;;;;;;;;;5055231;28;20225;-87
2022/09/09 00:06:28;;;;;;;0.60;0.60;;;;;;;;;;5054727;28;20237;-87
2022/09/09 00:09:03;;;;;;;0.55;0.55;;;;;;;;;;5055958;28;20198;-87
2022/09/09 00:11:42;;;;;;;1.58;1.38;;;;;;;;;;5055254;28;20921;-88
2022/09/09 00:14:18;;;;;;;0.60;0.60;;;;;;;;;;5055539;28;20312;-87
2022/09/09 00:16:52;;;;;;;0.95;0.90;;;;;;;;;;5055127;28;20281;-86
2022/09/09 00:19:25;;;;;;;0.85;0.85;;;;;;;;;;5055192;28;20204;-87
2022/09/09 00:22:06;;;;;;;0.68;0.68;;;;;;;;;;5055306;28;20210;-87
2022/09/09 00:24:43;;;;;;;1.27;1.17;;;;;;;;;;5054642;28;21072;-87
2022/09/09 00:27:18;;;;;;;0.98;0.90;;;;;;;;;;5074429;28;20215;-87
2022/09/09 00:29:53;;;;;;;0.90;0.90;;;;;;;;;;5075101;28;20732;-87
2022/09/09 00:32:22;;;;;;;0.93;0.85;;;;;;;;;;5075115;28;20254;-86
2022/09/09 00:34:52;;;;;;;0.82;0.82;;;;;;;;;;5074753;28;20262;-87
2022/09/09 00:37:22;;;;;;;0.50;0.50;;;;;;;;;;5074305;28;20740;-87
2022/09/09 00:39:54;;;;;;;1.95;1.48;;;;;;;;;;5075015;28;20193;-86
2022/09/09 00:42:26;;;;;;;1.88;0.80;;;;;;;;;;5075081;28;20205;-87
2022/09/09 00:45:03;;;;;;;0.65;0.65;;;;;;;;;;5074961;28;20660;-87
2022/09/09 00:47:46;;;;;;;0.65;0.65;;;;;;;;;;5074720;28;20231;-87
2022/09/09 00:50:40;;;;;;;0.80;0.80;;;;;;;;;;5073152;28;20242;-87
2022/09/09 00:53:24;;;;;;;0.80;0.80;;;;;;;;;;5074676;28;20262;-87
2022/09/09 00:56:01;;;;;;;0.75;0.60;;;;;;;;;;5074314;28;20266;-87
2022/09/09 00:58:29;;;;;;;1.33;1.10;;;;;;;;;;5074196;28;20720;-87
2022/09/09 01:01:06;;;;;;;0.60;0.60;;;;;;;;;;5074298;28;20249;-87
2022/09/09 01:03:38;;;;;;;0.80;0.80;;;;;;;;;;5074684;28;20216;-87
2022/09/09 01:06:26;;;;;;;1.42;1.25;;;;;;;;;;5074455;28;20315;-86
2022/09/09 01:09:12;;;;;;;1.98;1.00;;;;;;;;;;5075268;28;20284;-87
2022/09/09 01:11:54;;;;;;;1.15;0.75;;;;;;;;;;5075368;28;20217;-87
2022/09/09 01:14:41;;;;;;;2.08;0.90;;;;;;;;;;5074256;28;20274;-86
2022/09/09 01:17:15;;;;;;;1.00;0.90;;;;;;;;;;5074026;28;20392;-86
2022/09/09 01:19:56;;;;;;;0.82;0.82;;;;;;;;;;5074658;28;20189;-87
2022/09/09 01:22:34;;;;;;;0.85;0.85;;;;;;;;;;5079394;28;20637;-87
2022/09/09 01:25:25;;;;;;;1.25;1.20;;;;;;;;;;5074278;28;20742;-87
2022/09/09 01:27:57;;;;;;;2.10;1.25;;;;;;;;;;5054673;28;20213;-87
2022/09/09 01:30:25;;;;;;;1.55;1.42;;;;;;;;;;5055723;28;20281;-87
2022/09/09 01:32:58;;;;;;;0.90;0.90;;;;;;;;;;5056047;28;20210;-86
2022/09/09 01:35:42;;;;;;;1.30;1.20;;;;;;;;;;5055799;28;20228;-87
2022/09/09 01:38:10;;;;;;;2.03;1.17;;;;;;;;;;5055544;28;20201;-86
2022/09/09 01:40:37;;;;;;;1.25;0.90;;;;;;;;;;5055866;28;20672;-86
2022/09/09 01:43:10;;;;;;;1.02;0.90;;;;;;;;;;5054714;28;20213;-87
2022/09/09 01:45:40;;;;;;;1.48;1.08;;;;;;;;;;5056078;28;20275;-87
2022/09/09 01:48:10;;;;;;;0.93;0.93;;;;;;;;;;5054886;28;20588;-87
2022/09/09 01:50:40;;;;;;;1.35;1.10;;;;;;;;;;5055821;28;20637;-87
2022/09/09 01:53:13;;;;;;;1.50;1.30;;;;;;;;;;5054779;28;20216;-86
2022/09/09 01:55:56;;;;;;;1.95;1.00;;;;;;;;;;5055911;28;20217;-87
2022/09/09 01:58:37;;;;;;;1.92;1.83;;;;;;;;;;5055741;28;20283;-86
2022/09/09 02:01:14;;;;;;;1.63;1.02;;;;;;;;;;5054653;28;20205;-87
2022/09/09 02:03:48;;;;;;;1.00;1.00;;;;;;;;;;5055119;28;20221;-87
2022/09/09 02:06:38;;;;;;;1.20;1.10;;;;;;;;;;5055116;28;20248;-87
2022/09/09 02:09:18;;;;;;;2.10;1.13;;;;;;;;;;5055325;28;20688;-86
2022/09/09 02:11:49;;;;;;;1.30;1.20;;;;;;;;;;5054776;28;20177;-88
2022/09/09 02:14:23;;;;;;;1.00;0.93;;;;;;;;;;5055146;28;20638;-86
2022/09/09 02:17:00;;;;;;;1.23;1.13;;;;;;;;;;5055184;28;20768;-87
2022/09/09 02:19:33;;;;;;;1.75;1.25;;;;;;;;;;5055138;28;20201;-86
2022/09/09 02:22:02;;;;;;;1.42;1.00;;;;;;;;;;5056343;28;20256;-87
2022/09/09 02:24:34;;;;;;;1.58;1.48;;;;;;;;;;5054042;28;20674;-86
2022/09/09 02:27:05;;;;;;;1.40;1.30;;;;;;;;;;5073513;28;20757;-87
2022/09/09 02:29:41;;;;;;;1.08;1.08;;;;;;;;;;5074909;28;20262;-86
2022/09/09 02:32:12;;;;;;;0.77;0.77;;;;;;;;;;5075266;28;20215;-86
2022/09/09 02:34:44;;;;;;;1.95;1.20;;;;;;;;;;5075465;28;20692;-86
2022/09/09 02:37:21;;;;;;;1.88;1.55;;;;;;;;;;5074972;28;20201;-86
2022/09/09 02:39:54;;;;;;;3.25;1.70;;;;;;;;;;5075889;28;20263;-85
2022/09/09 02:42:22;;;;;;;1.80;1.20;;;;;;;;;;5077492;28;20182;-86
2022/09/09 02:44:51;;;;;;;1.50;1.20;;;;;;;;;;5079463;28;20220;-86
2022/09/09 02:47:31;;;;;;;0.98;0.88;;;;;;;;;;5079993;28;20761;-86
2022/09/09 02:50:11;;;;;;;1.23;1.13;;;;;;;;;;5079974;28;20272;-86
2022/09/09 02:53:13;;;;;;;1.83;1.33;;;;;;;;;;5080102;28;20220;-86
2022/09/09 02:55:48;;;;;;;2.25;1.30;;;;;;;;;;5080344;28;20228;-87
2022/09/09 02:58:18;;;;;;;1.00;1.00;;;;;;;;;;5079999;28;20668;-87
2022/09/09 03:00:49;;;;;;;1.23;1.10;;;;;;;;;;5080302;28;20185;-86
2022/09/09 03:03:18;;;;;;;1.10;1.10;;;;;;;;;;5078916;28;20207;-86
2022/09/09 03:05:46;;;;;;;1.90;1.20;;;;;;;;;;5079246;28;20304;-85
2022/09/09 03:08:14;;;;;;;1.05;1.02;;;;;;;;;;5080214;28;20847;-85
2022/09/09 03:10:41;;;;;;;1.80;1.48;;;;;;;;;;5078948;28;20201;-85
2022/09/09 03:13:09;;;;;;;1.23;1.02;;;;;;;;;;5080337;28;20615;-85
2022/09/09 03:15:37;;;;;;;1.20;1.10;;;;;;;;;;5080951;28;20308;-86
2022/09/09 03:18:06;;;;;;;1.35;1.10;;;;;;;;;;5080262;28;20197;-86
2022/09/09 03:20:34;;;;;;;1.40;1.20;;;;;;;;;;5080827;28;20227;-86
2022/09/09 03:23:02;;;;;;;1.15;1.08;;;;;;;;;;5079797;28;20580;-85
2022/09/09 03:25:30;;;;;;;1.40;1.30;;;;;;;;;;5074136;28;20252;-85
2022/09/09 03:27:58;;;;;;;1.73;1.15;;;;;;;;;;5058343;28;20308;-86
2022/09/09 03:30:26;;;;;;;2.00;1.20;;;;;;;;;;5059788;28;20244;-86
2022/09/09 03:32:54;;;;;;;1.23;1.00;;;;;;;;;;5059709;28;20201;-86
2022/09/09 03:35:23;;;;;;;1.67;1.10;;;;;;;;;;5059109;28;20225;-87
2022/09/09 03:37:51;;;;;;;1.77;1.20;;;;;;;;;;5059157;28;20288;-86
2022/09/09 03:40:19;;;;;;;1.02;0.95;;;;;;;;;;5059929;28;20230;-87
2022/09/09 03:42:47;;;;;;;1.30;1.20;;;;;;;;;;5059084;28;20201;-85
2022/09/09 03:45:15;;;;;;;2.90;1.42;;;;;;;;;;5059004;28;20317;-86
2022/09/09 03:47:42;;;;;;;0.95;0.82;;;;;;;;;;5057864;28;20247;-87
2022/09/09 03:50:11;;;;;;;1.17;0.85;;;;;;;;;;5058277;28;20229;-86
2022/09/09 03:52:42;;;;;;;1.08;1.00;;;;;;;;;;5057242;28;20208;-86
2022/09/09 03:55:10;;;;;;;0.90;0.90;;;;;;;;;;5058262;28;20230;-86
2022/09/09 03:57:38;;;;;;;1.42;1.08;;;;;;;;;;5058438;28;20206;-86
2022/09/09 04:00:07;;;;;;;2.63;0.80;;;;;;;;;;5057958;28;20224;-86
2022/09/09 04:02:35;;;;;;;2.28;1.00;;;;;;;;;;5057976;28;20608;-86
2022/09/09 04:05:02;;;;;;;1.50;0.70;;;;;;;;;;5058411;28;20304;-86
2022/09/09 04:07:30;;;;;;;1.05;0.93;;;;;;;;;;5057281;28;20225;-87
2022/09/09 04:09:58;;;;;;;7.30;1.35;;;;;;;;;;5057813;28;20228;-86
2022/09/09 04:12:26;;;;;;;1.02;0.90;;;;;;;;;;5057715;28;20292;-87
2022/09/09 04:14:53;;;;;;;2.58;1.27;;;;;;;;;;5058364;28;20652;-87
2022/09/09 04:17:21;;;;;;;1.65;1.20;;;;;;;;;;5057731;28;20298;-87
2022/09/09 04:19:48;;;;;;;1.48;1.10;;;;;;;;;;5057973;28;20650;-86
2022/09/09 04:22:16;;;;;;;1.00;0.90;;;;;;;;;;5057768;28;20210;-86
2022/09/09 04:24:44;;;;;;;0.80;0.80;;;;;;;;;;5058553;28;20222;-87
2022/09/09 04:27:13;;;;;;;1.67;0.95;;;;;;;;;;5057949;28;20296;-87
2022/09/09 04:29:40;;;;;;;0.90;0.90;;;;;;;;;;5058606;28;20258;-86
2022/09/09 04:32:08;;;;;;;0.82;0.80;;;;;;;;;;5058727;28;20635;-86
2022/09/09 04:34:37;;;;;;;0.85;0.80;;;;;;;;;;5058612;28;20304;-86
2022/09/09 04:37:04;;;;;;;1.55;0.93;;;;;;;;;;5058369;28;20198;-86
2022/09/09 04:39:32;;;;;;;0.85;0.85;;;;;;;;;;5058880;28;20638;-86
2022/09/09 04:41:59;;;;;;;1.00;0.80;;;;;;;;;;5056886;28;20206;-87
2022/09/09 04:44:29;;;;;;;1.55;1.38;;;;;;;;;;5057854;28;20299;-86
2022/09/09 04:46:56;;;;;;;1.40;0.95;;;;;;;;;;5059503;28;20269;-86
2022/09/09 04:49:24;;;;;;;1.25;1.10;;;;;;;;;;5059705;28;20244;-86
2022/09/09 04:51:51;;;;;;;1.33;1.25;;;;;;;;;;5057365;28;20209;-86
2022/09/09 04:54:19;;;;;;;1.48;0.95;;;;;;;;;;5058262;28;20229;-86
2022/09/09 04:56:46;;;;;;;1.02;0.95;;;;;;;;;;5057539;28;20623;-87
2022/09/09 04:59:14;;;;;;;1.15;1.02;;;;;;;;;;5059233;28;20220;-87
2022/09/09 05:01:43;;;;;;;2.72;0.90;;;;;;;;;;5058568;28;20236;-87
2022/09/09 05:04:10;;;;;;;0.90;0.90;;;;;;;;;;5057087;28;20277;-86
2022/09/09 05:06:38;;;;;;;1.23;0.95;;;;;;;;;;5056045;28;20263;-88
2022/09/09 05:09:06;;;;;;;1.17;1.00;;;;;;;;;;5058482;28;20312;-86
2022/09/09 05:11:36;;;;;;;1.40;1.10;;;;;;;;;;5059716;28;20284;-86
2022/09/09 05:14:04;;;;;;;1.75;1.00;;;;;;;;;;5058642;28;20221;-86
2022/09/09 05:16:31;;;;;;;1.33;0.70;;;;;;;;;;5059453;28;20670;-87
2022/09/09 05:19:02;;;;;;;0.95;0.90;;;;;;;;;;5059689;28;20269;-86
2022/09/09 05:21:30;;;;;;;1.30;0.98;;;;;;;;;;5058445;28;20750;-86
2022/09/09 05:23:58;;;;;;;0.82;0.80;;;;;;;;;;5058424;28;20237;-86
2022/09/09 05:26:25;;;;;;;1.25;1.17;;;;;;;;;;5058271;28;20204;-87
2022/09/09 05:28:53;;;;;;;1.13;1.10;;;;;;;;;;5058824;28;20237;-88
2022/09/09 05:31:20;;;;;;;1.00;1.00;;;;;;;;;;5059937;28;20240;-87
2022/09/09 05:33:49;;;;;;;1.88;1.10;;;;;;;;;;5058565;28;20737;-86
2022/09/09 05:36:19;;;;;;;1.20;1.10;;;;;;;;;;5057801;28;20247;-86
2022/09/09 05:38:47;;;;;;;2.00;1.10;;;;;;;;;;5058830;28;20212;-86
2022/09/09 05:41:17;;;;;;;3.08;2.65;;;;;;;;;;5058555;28;20284;-80
2022/09/09 05:43:45;;;;;;;2.83;1.23;;;;;;;;;;5053975;28;20312;-81
2022/09/09 05:46:15;;;;;;;1.48;1.10;;;;;;;;;;5054253;28;20199;-81
2022/09/09 05:48:46;;;;;;;0.80;0.80;;;;;;;;;;5054065;28;20228;-80
2022/09/09 05:51:16;;;;;;;1.88;1.10;;;;;;;;;;5053724;28;20209;-81
2022/09/09 05:53:46;;;;;;;2.40;1.05;;;;;;;;;;5053458;28;20387;-80
2022/09/09 05:56:15;;;;;;;0.80;0.80;;;;;;;;;;5053201;28;20202;-80
2022/09/09 05:58:44;;;;;;;1.30;1.08;;;;;;;;;;5053734;28;20194;-81
2022/09/09 06:01:13;;;;;;;1.10;1.00;;;;;;;;;;5053811;28;20259;-80
2022/09/09 06:03:43;;;;;;;1.08;1.00;;;;;;;;;;5053956;28;20220;-80
2022/09/09 06:06:13;;;;;;;2.70;1.13;;;;;;;;;;5054002;28;20593;-81
2022/09/09 06:08:43;;;;;;;0.93;0.93;;;;;;;;;;5053720;28;20217;-80
2022/09/09 06:11:14;;;;;;;3.13;1.10;;;;;;;;;;5054377;28;20208;-81
2022/09/09 06:13:43;;;;;;;1.05;1.00;;;;;;;;;;5050369;28;20705;-80
2022/09/09 06:16:11;;;;;;;1.58;1.48;;;;;;;;;;5053619;28;20629;-81
2022/09/09 06:18:39;;;;;;;2.55;1.30;;;;;;;;;;5053619;28;20194;-81
2022/09/09 06:21:10;;;;;;;1.27;1.17;;;;;;;;;;5053931;28;20227;-81
2022/09/09 06:23:37;;;;;;;1.75;0.90;;;;;;;;;;5053788;28;20300;-81
2022/09/09 06:26:09;;;;;;;3.42;1.10;;;;;;;;;;5063759;28;20215;-81
2022/09/09 06:28:39;;;;;;;2.38;1.23;;;;;;;;;;5056590;28;20640;-81
2022/09/09 06:31:08;;;;;;;2.30;1.23;;;;;;;;;;5053134;28;20212;-80
2022/09/09 06:33:40;;;;;;;1.23;1.00;;;;;;;;;;5053313;28;20193;-81
2022/09/09 06:36:11;;;;;;;1.58;1.20;;;;;;;;;;5053540;28;20202;-80
2022/09/09 06:38:39;;;;;;;1.30;1.20;;;;;;;;;;5053473;28;20655;-82
2022/09/09 06:41:07;;;;;;;4.13;2.10;;;;;;;;;;5053758;28;20237;-81
2022/09/09 06:43:35;;;;;;;3.20;1.45;;;;;;;;;;5053676;28;20236;-81
2022/09/09 06:46:06;;;;;;;1.52;1.17;;;;;;;;;;5053620;28;20197;-84
2022/09/09 06:48:33;;;;;;;3.15;1.00;;;;;;;;;;5053526;28;20202;-84
2022/09/09 06:51:06;;;;;;;1.30;1.20;;;;;;;;;;5053779;28;20288;-82
2022/09/09 06:53:35;;;;;;;2.17;1.33;;;;;;;;;;5052783;28;20197;-82
2022/09/09 06:56:14;;;;;;;1.13;1.02;;;;;;;;;;5054643;28;20215;-82
2022/09/09 06:58:43;;;;;;;1.85;1.27;;;;;;;;;;5073538;28;20243;-82
2022/09/09 07:01:15;;;;;;;2.05;1.10;;;;;;;;;;5073329;28;20578;-82
2022/09/09 07:03:46;;;;;;;2.22;1.40;;;;;;;;;;5073367;28;20284;-82
2022/09/09 07:06:17;;;;;;;0.90;0.90;;;;;;;;;;5073237;28;20197;-83
2022/09/09 07:08:49;;;;;;;1.58;1.08;;;;;;;;;;5073332;28;20204;-83
2022/09/09 07:11:16;;;;;;;2.03;1.75;;;;;;;;;;5073154;28;20201;-83
2022/09/09 07:13:43;;;;;;;2.63;1.23;;;;;;;;;;5069742;28;20247;-82
2022/09/09 07:16:14;;;;;;;2.65;1.15;;;;;;;;;;5052563;28;20202;-81
2022/09/09 07:18:43;;;;;;;1.35;1.25;;;;;;;;;;5053017;28;20640;-82
2022/09/09 07:21:12;;;;;;;2.58;1.27;;;;;;;;;;5052959;28;20553;-82
2022/09/09 07:23:40;;;;;;;1.77;1.40;;;;;;;;;;5052947;28;20237;-81
2022/09/09 07:26:10;;;;;;;2.38;1.30;;;;;;;;;;5063964;28;20215;-82
2022/09/09 07:28:38;;;;;;;1.33;1.23;;;;;;;;;;5074627;28;20204;-83
2022/09/09 07:31:07;;;;;;;2.65;1.35;;;;;;;;;;5076575;28;20709;-82
2022/09/09 07:33:36;;;;;;;1.50;1.40;;;;;;;;;;5076811;28;20683;-83
2022/09/09 07:36:07;;;;;;;1.40;1.10;;;;;;;;;;5076657;28;20296;-83
2022/09/09 07:38:40;;;;;;;2.65;1.20;;;;;;;;;;5077251;28;20204;-83
2022/09/09 07:41:11;;;;;;;1.48;1.10;;;;;;;;;;5076797;28;20213;-83
2022/09/09 07:43:40;;;;;;;1.75;1.33;;;;;;;;;;5074092;28;20240;-81
2022/09/09 07:46:08;;;;;;;2.13;1.90;;;;;;;;;;5057740;28;20210;-83
2022/09/09 07:48:37;;;;;;;2.08;1.15;;;;;;;;;;5056168;28;20202;-83
2022/09/09 07:51:08;;;;;;;1.65;1.50;;;;;;;;;;5056643;28;20577;-82
2022/09/09 07:53:38;;;;;;;1.33;1.20;;;;;;;;;;5057011;28;20185;-83
2022/09/09 07:56:09;;;;;;;0.85;0.85;;;;;;;;;;5067741;28;20295;-83
2022/09/09 07:58:36;;;;;;;1.50;1.23;;;;;;;;;;5076751;28;20258;-83
2022/09/09 08:01:10;;;;;;;0.98;0.98;;;;;;;;;;5077398;28;20219;-83
2022/09/09 08:03:39;;;;;;;1.67;1.50;;;;;;;;;;5076453;28;20227;-83
2022/09/09 08:06:09;;;;;;;1.40;1.10;;;;;;;;;;5076918;28;20239;-84
2022/09/09 08:08:38;;;;;;;1.20;1.08;;;;;;;;;;5076822;28;20704;-82
2022/09/09 08:11:08;;;;;;;2.00;1.30;;;;;;;;;;5076378;28;20232;-84
2022/09/09 08:13:37;;;;;;;2.47;1.60;;;;;;;;;;5073686;28;20205;-84
2022/09/09 08:16:10;;;;;;;1.17;1.15;;;;;;;;;;5055954;28;20202;-85
2022/09/09 08:18:40;;;;;;;1.63;1.20;;;;;;;;;;5055856;28;20197;-83
2022/09/09 08:21:11;;;;;;;4.88;1.58;;;;;;;;;;5056416;28;20194;-83
2022/09/09 08:23:40;;;;;;;2.30;1.30;;;;;;;;;;5055906;28;20206;-84
2022/09/09 08:26:11;;;;;;;2.65;1.17;;;;;;;;;;5067553;28;20213;-85
2022/09/09 08:28:39;;;;;;;3.08;1.40;;;;;;;;;;5075955;28;20201;-86
2022/09/09 08:31:10;;;;;;;2.15;1.88;;;;;;;;;;5075082;28;20732;-84
2022/09/09 08:33:39;;;;;;;2.22;1.30;;;;;;;;;;5075720;28;20207;-85
2022/09/09 08:36:09;;;;;;;1.10;1.02;;;;;;;;;;5075799;28;20197;-85
2022/09/09 08:38:37;;;;;;;3.42;1.13;;;;;;;;;;5074900;28;20208;-84
2022/09/09 08:41:22;;;;;;;1.55;1.45;;;;;;;;;;5074411;28;20601;-84
2022/09/09 08:43:52;;;;;;;1.45;1.30;;;;;;;;;;5071196;28;20731;-85
2022/09/09 08:46:24;;;;;;;1.30;1.20;;;;;;;;;;5055952;28;20229;-85
2022/09/09 08:48:59;;;;;;;1.38;1.27;;;;;;;;;;5055453;28;20221;-85
2022/09/09 08:51:29;;;;;;;2.28;1.20;;;;;;;;;;5055198;28;20222;-84
2022/09/09 08:53:58;;;;;;;1.35;1.20;;;;;;;;;;5056168;28;20226;-84
2022/09/09 08:56:28;;;;;;;2.00;0.98;;;;;;;;;;5068160;28;20374;-84
2022/09/09 08:58:57;;;;;;;1.02;1.02;;;;;;;;;;5063381;22;20287;-84
2022/09/09 09:01:52;;;;;;;2.13;1.95;;;;;;;;;;5047427;28;20201;-85
2022/09/09 09:04:44;;;;;;;1.90;1.08;;;;;;;;;;5054916;28;20277;-85
2022/09/09 09:07:24;;;;;;;1.88;1.38;;;;;;;;;;5055198;28;20229;-83
2022/09/09 09:10:01;;;;;;;5.25;2.10;;;;;;;;;;5058454;28;20202;-83
2022/09/09 09:12:33;;;;;;;2.05;1.25;;;;;;;;;;5054776;28;20616;-81
2022/09/09 09:15:01;;;;;;;0.85;0.77;;;;;;;;;;5038496;28;20206;-84
2022/09/09 09:17:32;;;;;;;1.13;1.02;;;;;;;;;;5039098;28;20305;-84
2022/09/09 09:20:04;;;;;;;2.53;1.15;;;;;;;;;;5038569;28;20210;-84
2022/09/09 09:22:36;;;;;;;1.33;1.10;;;;;;;;;;5038878;28;20214;-84
2022/09/09 09:25:12;;;;;;;0.98;0.80;;;;;;;;;;5039449;28;20182;-82
2022/09/09 09:27:45;;;;;;;0.93;0.93;;;;;;;;;;5046870;28;20690;-83
2022/09/09 09:30:18;;;;;;;2.88;0.95;;;;;;;;;;5034820;28;20187;-85
2022/09/09 09:32:56;;;;;;;0.75;0.75;;;;;;;;;;5036220;28;20194;-83
2022/09/09 09:35:25;;;;;;;1.38;0.80;;;;;;;;;;5034773;28;20269;-84
2022/09/09 09:37:53;;;;;;;2.42;1.10;;;;;;;;;;5036226;28;20694;-83
2022/09/09 09:40:23;;;;;;;1.10;1.00;;;;;;;;;;5037484;28;20262;-83
2022/09/09 09:42:55;;;;;;;0.88;0.80;;;;;;;;;;5038930;28;20210;-82
2022/09/09 09:45:32;;;;;;;2.25;1.20;;;;;;;;;;5038331;28;20212;-82
2022/09/09 09:48:02;;;;;;;1.80;0.95;;;;;;;;;;5038098;28;20188;-83
2022/09/09 09:50:32;;;;;;;1.55;0.98;;;;;;;;;;5037875;28;20209;-82
2022/09/09 09:53:01;;;;;;;0.90;0.90;;;;;;;;;;5037589;28;20186;-82
2022/09/09 09:55:31;;;;;;;1.30;1.00;;;;;;;;;;5043078;28;20292;-83
2022/09/09 09:58:04;;;;;;;2.20;1.00;;;;;;;;;;5056194;28;20206;-83
2022/09/09 10:00:31;;;;;;;1.70;1.08;;;;;;;;;;5057321;28;20196;-83
2022/09/09 10:03:01;;;;;;;1.48;1.00;;;;;;;;;;5059749;28;20255;-82
2022/09/09 10:05:31;;;;;;;1.50;0.85;;;;;;;;;;5059944;28;20198;-83
2022/09/09 10:08:05;;;;;;;1.33;1.23;;;;;;;;;;5057215;28;20261;-83
2022/09/09 10:10:44;;;;;;;3.50;1.40;;;;;;;;;;5056321;28;20185;-82
2022/09/09 10:13:17;;;;;;;3.05;1.13;;;;;;;;;;5056763;28;20268;-84
2022/09/09 10:15:53;;;;;;;1.30;1.13;;;;;;;;;;5015887;28;20246;-83
2022/09/09 10:18:41;;;;;;;0.88;0.80;;;;;;;;;;5016723;28;20191;-82
2022/09/09 10:21:29;;;;;;;1.27;1.10;;;;;;;;;;5016301;28;20607;-84
2022/09/09 10:24:14;;;;;;;7.03;2.35;;;;;;;;;;5047730;28;20273;-84
2022/09/09 10:26:47;;;;;;;1.45;1.00;;;;;;;;;;5041200;28;20305;-83
2022/09/09 10:29:43;;;;;;;1.00;0.90;;;;;;;;;;5036464;28;20210;-84
2022/09/09 10:32:33;;;;;;;2.13;0.73;;;;;;;;;;5037956;28;20255;-83
2022/09/09 10:35:11;;;;;;;1.05;0.98;;;;;;;;;;5034815;28;20214;-83
2022/09/09 10:38:15;;;;;;;1.20;0.80;;;;;;;;;;5034841;28;20232;-83
2022/09/09 10:41:12;;;;;;;2.35;1.00;;;;;;;;;;5031448;28;20218;-84
2022/09/09 10:44:16;;;;;;;1.20;1.10;;;;;;;;;;5021260;28;20678;-84
2022/09/09 10:47:03;;;;;;;0.77;0.75;;;;;;;;;;5011853;28;20257;-84
2022/09/09 10:49:58;;;;;;;1.65;1.00;;;;;;;;;;5014919;28;20568;-84
2022/09/09 10:52:33;;;;;;;2.92;1.77;;;;;;;;;;5013950;28;20211;-84
2022/09/09 10:55:08;;;;;;;1.20;1.10;;;;;;;;;;5017633;28;20190;-84
2022/09/09 10:57:39;;;;;;;1.73;1.30;;;;;;;;;;5053593;28;20217;-85
2022/09/09 11:00:16;;;;;;;1.77;1.45;;;;;;;;;;5032924;28;20210;-85
2022/09/09 11:02:44;;;;;;;1.10;0.90;;;;;;;;;;5034635;28;20289;-84
2022/09/09 11:05:18;;;;;;;0.68;0.68;;;;;;;;;;5037274;28;20226;-83
2022/09/09 11:07:52;;;;;;;1.42;0.90;;;;;;;;;;5037133;28;20214;-84
2022/09/09 11:10:30;;;;;;;0.93;0.93;;;;;;;;;;5037556;28;20241;-84
2022/09/09 11:13:04;;;;;;;1.48;1.05;;;;;;;;;;5038265;28;20758;-84
2022/09/09 11:15:40;;;;;;;0.77;0.63;;;;;;;;;;5038090;28;20186;-83
2022/09/09 11:18:11;;;;;;;1.95;1.15;;;;;;;;;;5039150;28;20185;-83
2022/09/09 11:20:38;;;;;;;0.80;0.80;;;;;;;;;;5038584;28;20412;-84
2022/09/09 11:23:12;;;;;;;1.88;0.90;;;;;;;;;;5047838;28;20244;-85
2022/09/09 11:25:44;;;;;;;1.30;0.77;;;;;;;;;;5051291;28;20198;-83
2022/09/09 11:28:29;;;;;;;2.80;1.10;;;;;;;;;;5038521;28;20202;-83
2022/09/09 11:31:11;;;;;;;2.03;0.98;;;;;;;;;;5039026;28;20209;-83
2022/09/09 11:34:15;;;;;;;0.70;0.70;;;;;;;;;;5038084;28;20280;-84
2022/09/09 11:37:01;;;;;;;1.42;1.00;;;;;;;;;;5038021;28;20285;-84
2022/09/09 11:39:58;;;;;;;2.13;0.90;;;;;;;;;;5040110;28;20186;-84
2022/09/09 11:42:27;;;;;;;2.90;1.25;;;;;;;;;;5039447;28;20285;-84
2022/09/09 11:44:56;;;;;;;1.73;0.98;;;;;;;;;;5022942;28;20298;-83
2022/09/09 11:47:29;;;;;;;0.95;0.70;;;;;;;;;;5017059;28;20250;-84
2022/09/09 11:50:12;;;;;;;1.88;1.33;;;;;;;;;;5020369;28;20785;-83
2022/09/09 11:52:43;;;;;;;0.98;0.90;;;;;;;;;;5020880;28;20265;-83
2022/09/09 11:55:12;;;;;;;3.28;1.02;;;;;;;;;;5021965;28;20631;-83
2022/09/09 11:57:43;;;;;;;1.63;0.95;;;;;;;;;;5038235;28;20234;-83
2022/09/09 12:00:36;;;;;;;1.67;0.80;;;;;;;;;;5038049;28;20647;-83
2022/09/09 12:03:05;;;;;;;1.83;1.27;;;;;;;;;;5040030;28;20194;-83
2022/09/09 12:05:42;;;;;;;1.33;0.90;;;;;;;;;;5037254;28;20198;-84
2022/09/09 12:08:12;;;;;;;2.80;1.80;;;;;;;;;;5040800;28;20193;-83
2022/09/09 12:10:41;;;;;;;1.02;0.93;;;;;;;;;;5040111;28;20202;-84
2022/09/09 12:13:21;;;;;;;1.98;1.00;;;;;;;;;;5037889;28;20223;-83
2022/09/09 12:15:51;;;;;;;0.90;0.82;;;;;;;;;;5018005;28;20222;-83
2022/09/09 12:18:25;;;;;;;1.38;1.05;;;;;;;;;;5017795;28;20199;-82
2022/09/09 12:20:58;;;;;;;2.67;0.93;;;;;;;;;;5018609;28;20214;-83
2022/09/09 12:23:38;;;;;;;1.17;1.00;;;;;;;;;;5018554;28;20179;-84
2022/09/09 12:26:24;;;;;;;0.82;0.73;;;;;;;;;;5018430;28;20309;-83
2022/09/09 12:29:03;;;;;;;1.02;0.75;;;;;;;;;;5025498;28;20238;-84
2022/09/09 12:31:36;;;;;;;1.52;1.20;;;;;;;;;;5041326;28;20187;-82
2022/09/09 12:34:14;;;;;;;1.17;1.10;;;;;;;;;;5054716;22;20229;-82
2022/09/09 12:36:45;;;;;;;1.25;1.00;;;;;;;;;;5045215;28;20241;-82
2022/09/09 12:39:19;;;;;;;0.68;0.68;;;;;;;;;;5045079;28;20213;-83
2022/09/09 12:41:56;;;;;;;0.82;0.82;;;;;;;;;;5044806;28;20637;-81
2022/09/09 12:44:27;;;;;;;3.05;1.80;;;;;;;;;;5043832;28;20264;-83
2022/09/09 12:46:56;;;;;;;1.65;1.25;;;;;;;;;;5044866;28;20226;-82
2022/09/09 12:49:33;;;;;;;0.68;0.55;;;;;;;;;;5044253;28;20203;-82
2022/09/09 12:52:05;;;;;;;1.75;0.98;;;;;;;;;;5045209;28;20261;-81
2022/09/09 12:54:34;;;;;;;1.60;0.88;;;;;;;;;;5042712;28;20287;-82
2022/09/09 12:57:01;;;;;;;0.70;0.52;;;;;;;;;;5044344;28;20233;-82
2022/09/09 12:59:39;;;;;;;2.33;0.85;;;;;;;;;;5044329;28;20262;-82
2022/09/09 13:02:19;;;;;;;1.40;0.70;;;;;;;;;;5044458;28;20198;-82
2022/09/09 13:04:47;;;;;;;0.77;0.60;;;;;;;;;;5043459;28;20214;-82
2022/09/09 13:07:16;;;;;;;1.48;0.73;;;;;;;;;;5044314;28;20289;-81
2022/09/09 13:09:44;;;;;;;1.38;0.47;;;;;;;;;;5043796;28;20198;-81
2022/09/09 13:12:19;;;;;;;0.50;0.47;;;;;;;;;;5044365;28;20202;-81
2022/09/09 13:14:51;;;;;;;0.70;0.70;;;;;;;;;;5042686;28;20214;-81
2022/09/09 13:17:23;;;;;;;0.32;0.30;;;;;;;;;;5043699;28;20294;-81
2022/09/09 13:19:52;;;;;;;0.43;0.43;;;;;;;;;;5042453;28;20245;-82
2022/09/09 13:22:28;;;;;;;1.13;0.80;;;;;;;;;;5042339;28;20194;-81
2022/09/09 13:25:14;;;;;;;1.02;0.68;;;;;;;;;;5042935;28;20233;-81
2022/09/09 13:27:52;;;;;;;1.08;0.93;;;;;;;;;;5061200;28;20272;-82
2022/09/09 13:30:30;;;;;;;0.80;0.75;;;;;;;;;;5062308;28;20190;-80
2022/09/09 13:33:22;;;;;;;1.02;0.60;;;;;;;;;;5062288;28;20595;-81
2022/09/09 13:35:52;;;;;;;1.27;0.80;;;;;;;;;;5060042;28;20209;-83
2022/09/09 13:38:21;;;;;;;0.95;0.75;;;;;;;;;;5062482;28;20556;-81
2022/09/09 13:40:57;;;;;;;0.93;0.93;;;;;;;;;;5063076;28;20221;-82
2022/09/09 13:43:26;;;;;;;1.15;0.77;;;;;;;;;;5062624;28;20245;-81
2022/09/09 13:46:01;;;;;;;2.47;0.77;;;;;;;;;;5061605;28;20225;-82
2022/09/09 13:48:29;;;;;;;0.80;0.80;;;;;;;;;;5062165;28;20291;-81
2022/09/09 13:51:04;;;;;;;1.13;1.10;;;;;;;;;;5060606;28;20300;-82
2022/09/09 13:53:32;;;;;;;2.58;1.23;;;;;;;;;;5058960;28;20217;-83
2022/09/09 13:56:01;;;;;;;2.22;0.95;;;;;;;;;;5049817;28;20214;-83
2022/09/09 13:58:28;;;;;;;1.25;0.88;;;;;;;;;;5037566;28;20206;-82
2022/09/09 14:00:57;;;;;;;0.93;0.80;;;;;;;;;;5038890;28;20202;-81
2022/09/09 14:03:25;;;;;;;1.48;1.38;;;;;;;;;;5039627;28;20195;-83
2022/09/09 14:05:54;;;;;;;0.60;0.60;;;;;;;;;;5041270;28;20245;-82
2022/09/09 14:08:28;;;;;;;0.82;0.70;;;;;;;;;;5040536;28;20205;-82
2022/09/09 14:10:58;;;;;;;0.63;0.60;;;;;;;;;;5040744;28;20200;-83
2022/09/09 14:13:25;;;;;;;0.90;0.77;;;;;;;;;;5039538;28;20565;-83
2022/09/09 14:15:53;;;;;;;0.63;0.63;;;;;;;;;;5040421;28;20651;-84
2022/09/09 14:18:25;;;;;;;2.90;1.13;;;;;;;;;;5040602;28;20202;-84
2022/09/09 14:20:53;;;;;;;0.77;0.65;;;;;;;;;;5040999;28;20788;-84
2022/09/09 14:23:21;;;;;;;0.82;0.82;;;;;;;;;;5042318;28;20202;-83
2022/09/09 14:25:49;;;;;;;0.80;0.80;;;;;;;;;;5040386;28;20201;-82
2022/09/09 14:28:17;;;;;;;1.48;0.82;;;;;;;;;;5040838;28;20206;-84
2022/09/09 14:30:46;;;;;;;1.25;0.85;;;;;;;;;;5041169;28;20300;-83
2022/09/09 14:33:17;;;;;;;0.80;0.80;;;;;;;;;;5041353;28;20260;-82
2022/09/09 14:35:46;;;;;;;1.73;1.00;;;;;;;;;;5041826;28;20198;-81
2022/09/09 14:38:14;;;;;;;1.00;0.93;;;;;;;;;;5045736;28;20281;-83
2022/09/09 14:40:41;;;;;;;1.35;0.95;;;;;;;;;;5047803;28;20261;-82
2022/09/09 14:43:13;;;;;;;1.20;1.10;;;;;;;;;;5047304;28;20233;-84
2022/09/09 14:45:40;;;;;;;0.70;0.70;;;;;;;;;;5047732;28;20226;-83
2022/09/09 14:48:08;;;;;;;0.93;0.85;;;;;;;;;;5047815;28;20241;-81
2022/09/09 14:50:39;;;;;;;1.20;1.10;;;;;;;;;;5046976;28;20202;-84
2022/09/09 14:53:09;;;;;;;1.55;0.85;;;;;;;;;;5047714;28;20701;-83
2022/09/09 14:55:37;;;;;;;1.65;0.80;;;;;;;;;;5047553;28;20253;-83
2022/09/09 14:58:06;;;;;;;0.65;0.47;;;;;;;;;;5047797;28;20287;-84
2022/09/09 15:00:33;;;;;;;1.40;0.85;;;;;;;;;;5047473;28;20753;-83
2022/09/09 15:03:01;;;;;;;1.10;0.80;;;;;;;;;;5048201;28;20236;-83
2022/09/09 15:05:28;;;;;;;1.25;0.95;;;;;;;;;;5047698;28;20250;-83
2022/09/09 15:07:56;;;;;;;0.80;0.80;;;;;;;;;;5046544;28;20229;-83
2022/09/09 15:10:26;;;;;;;1.10;0.90;;;;;;;;;;5046843;28;20289;-83
2022/09/09 15:12:53;;;;;;;1.00;0.80;;;;;;;;;;5046469;28;20198;-83
2022/09/09 15:15:21;;;;;;;1.48;1.15;;;;;;;;;;5047683;28;20222;-84